Kraków John Paul II International Airport

EPKK · 小波兰省, 波兰

罗盘
风向 的 风向 080° Kraków John Paul II International Airport 7/25
风: 3 kt, 1 beaufort

3 kt

改变
0 ft 1.000 2.000 3.000 4.000 5.000
没有观察到明显的云
METAR EPKK 090530Z 08003KT 3400 BR NSC M11/M13 Q1039

METAR Kraków John Paul II International Airport - EPKK/KRK

Kraków John Paul II International Airport是,波兰中的大型机场。 该机场有一条跑道: 7/25. 该领域的国际民航组织标志是EPKK 它的国际航空运输协会代码是KRK.

这份报告是针对2023年2月9日 06:30, 当地时间在Kraków John Paul II International Airport进行的。

机场观察

风向为080°,速度为3 kt。

可见度为3,4 km。

有没有观察到明显的云。 没有观察到天花板。

当前天气为薄雾。 温度为-11 °C,阵风为-17 °C。 露点为-13 °C,相对湿度为85%。 海平面上的气压为1039 hPa (QNH)。

白天

今天,太阳从07:02升起,在16:47降落。 这适用于Kraków John Paul II International Airport,世界夏令时可能有所不同。 当地时间与世界标准时间之间的时差为+1 小时。 当前,没有夏令时有效。

公司介绍

我们没有关于这个机场的公司信息。

体会

到Vliegles.nl去找飞行课程,跳伞和其他飞行体验。 浏览页面,了解Kraków John Paul II International Airport附近所有可用的活动。 你也可以使用搜索功能来寻找你所在地附近的特定飞行课程、跳伞或其他飞行体验。

跑道

Id 标题 侧风 逆风 侧风 %
7/25 078°-258° 3 kt 3 %

逆风成分最大的方向会被突出显示,并用于横风计算。 这并不一定意味着这个方向在使用。

乌云

- NSC 没有观察到明显的云

温度 & 天气

天气 薄雾
温度 -11 °C
露点 -13 °C
相对湿度 85%
风寒 -17 °C
Kp-index 3 (0-9)

白天

日出
07:02 (24m)
中午
11:55
日落
16:47

小工具

你想在你的网站上有一个关于Kraków John Paul II International Airport的当前航空天气(METAR)的小部件吗?

显示HTML代码

我们和第三方通过cookies跟踪您在我们网站上的互联网行为。如果你继续,我们认为你同意我们的饼干政策